Startpagina
METAR-TAF:

METAR-TAF

Vliegvelden :

Uppsala, Zweden

breedte: 59-53N, lengte: 017-36E, hoogte: 21 m

Actueel weer

Dit bericht is 36 minuten geleden gemaakt, om 02:20 UTC
Wind 7 kt uit het zuidwesten
Temperatuur 4°C
Vochtigheid 87%
Druk 1004 hPa
Zicht 10 km of meer

METAR: ESCM 240220Z AUTO 23007KT 9999 NCD 04/02 Q1004

Tijdstip: 03:56 (02:56 UTC)

Verwachting

Dit bericht is 9 uur en het 25 minuten geleden gemaakt, om 17:31 UTC
Verwachting geldig van 23 om 18 UTC tot 23 om 21 UTC
Wind 8 kt uit het westzuidwesten
Zicht 10 km of meer
geen wolken onder 1500 m en geen cumulonimbus

TAF: ESCM 231731Z 2318/2321 25008KT CAVOK RMK MIL

Waarnemingen en weersverwachtingen van meer dan 4000 vliegvelden (METAR en TAF).

De beschikbare stations zijn de gele en rode punten op de kaart.

Ga met uw muis naar het station om de naam te zien.

Klik dan om waarnemingen en weersverwachtingen te zien.

kaart wijzigen: klik op de groene knoppen met een zwart kruis om in te zoomen, op de groene knop met een streepje om uit te zoomen of op de groene pijlen voor aangrenzende kaarten.


METAR-TAF: